KOPL/OPL METAR and TAF weather

Enter ICAO airport designator
Station Type Date Time Source
KOPL METAR 2019/10/15 18:35 UTC NOAA

KOPL 151835Z AUTO 25008KT 10SM SCT026 BKN050 OVC090 30/24 A2991 RMK AO2 T02970235


Station Type Date Time Source
KOPL Decoded METAR 2019/10/15 18:35 UTC NOAA

Station name not available
Oct 15, 2019 - 02:35 PM EDT / 2019.10.15 1835 UTC
Wind: from the WSW (250 degrees) at 9 MPH (8 KT):0
Visibility: 10 mile(s):0
Sky conditions: overcast
Temperature: 85.5 F (29.7 C)
Heat index: 93.4 F (34.1 C):1
Dew Point: 74.3 F (23.5 C)
Relative Humidity: 69%
Pressure (altimeter): 29.91 in. Hg (1012 hPa)
ob: KOPL 151835Z AUTO 25008KT 10SM SCT026 BKN050 OVC090 30/24 A2991 RMK AO2 T02970235
cycle: 18

Station Type Date Time Source
KOPL TAF UTC NOAA

Error!

Example: see airport list